Terminal Aerodrome Forecast
Issued by NWS

Home | Current Version | Previous Version | Text Only | Print | Product List | Glossary On
Versions: 1 2 3 4 5 6 7 8 9 10 11 12 13 14 15 16 17 18 19 20 21 22
000
FTUS43 KILX 260525
TAFDEC
TAF
KDEC 260525Z 2606/2706 25007KT P6SM SCT100
     FM261200 18008KT P6SM BKN100
     FM261500 19012G22KT P6SM BKN120
     FM262000 22014G24KT P6SM BKN150
     FM262300 21009KT P6SM BKN150=

USA.gov is the U.S. government's official web portal to all federal, state and local government web resources and services.